sensor_id;sensor_type;location;lat;lon;timestamp;P1;durP1;ratioP1;P2;durP2;ratioP2
10847;SDS011;5477;48.806;9.154;2023-12-29T00:00:00;3.53;;;1.97;;
10847;SDS011;5477;48.806;9.154;2023-12-29T00:02:31;3.20;;;2.00;;
10847;SDS011;5477;48.806;9.154;2023-12-29T00:04:59;2.57;;;1.97;;
10847;SDS011;5477;48.806;9.154;2023-12-29T00:07:27;2.00;;;1.73;;
10847;SDS011;5477;48.806;9.154;2023-12-29T00:09:55;2.33;;;2.10;;
10847;SDS011;5477;48.806;9.154;2023-12-29T00:12:23;2.13;;;1.70;;
10847;SDS011;5477;48.806;9.154;2023-12-29T00:14:52;3.23;;;2.00;;
10847;SDS011;5477;48.806;9.154;2023-12-29T00:17:20;2.03;;;1.90;;
10847;SDS011;5477;48.806;9.154;2023-12-29T00:19:48;2.53;;;1.97;;
10847;SDS011;5477;48.806;9.154;2023-12-29T00:22:16;2.20;;;2.00;;
10847;SDS011;5477;48.806;9.154;2023-12-29T00:24:44;2.00;;;1.80;;
10847;SDS011;5477;48.806;9.154;2023-12-29T00:27:13;3.23;;;2.20;;
10847;SDS011;5477;48.806;9.154;2023-12-29T00:29:41;2.13;;;1.93;;
10847;SDS011;5477;48.806;9.154;2023-12-29T00:32:10;3.20;;;2.10;;
10847;SDS011;5477;48.806;9.154;2023-12-29T00:34:39;2.50;;;2.10;;
10847;SDS011;5477;48.806;9.154;2023-12-29T00:37:07;2.70;;;2.00;;
10847;SDS011;5477;48.806;9.154;2023-12-29T00:39:35;3.33;;;2.00;;
10847;SDS011;5477;48.806;9.154;2023-12-29T00:42:06;2.77;;;2.17;;
10847;SDS011;5477;48.806;9.154;2023-12-29T00:44:35;3.27;;;2.20;;
10847;SDS011;5477;48.806;9.154;2023-12-29T00:47:03;2.50;;;2.30;;
10847;SDS011;5477;48.806;9.154;2023-12-29T00:49:32;2.33;;;2.07;;
10847;SDS011;5477;48.806;9.154;2023-12-29T00:52:00;3.20;;;2.20;;
10847;SDS011;5477;48.806;9.154;2023-12-29T00:54:29;2.30;;;2.00;;
10847;SDS011;5477;48.806;9.154;2023-12-29T00:56:57;2.97;;;2.10;;
10847;SDS011;5477;48.806;9.154;2023-12-29T00:59:26;3.10;;;2.03;;
10847;SDS011;5477;48.806;9.154;2023-12-29T01:01:54;2.13;;;1.93;;
10847;SDS011;5477;48.806;9.154;2023-12-29T01:04:22;2.67;;;1.83;;
10847;SDS011;5477;48.806;9.154;2023-12-29T01:06:51;2.40;;;2.10;;
10847;SDS011;5477;48.806;9.154;2023-12-29T01:09:20;2.63;;;2.13;;
10847;SDS011;5477;48.806;9.154;2023-12-29T01:11:48;5.70;;;2.07;;
10847;SDS011;5477;48.806;9.154;2023-12-29T01:14:16;2.10;;;1.90;;
10847;SDS011;5477;48.806;9.154;2023-12-29T01:16:44;2.20;;;2.00;;
10847;SDS011;5477;48.806;9.154;2023-12-29T01:19:12;3.03;;;2.40;;
10847;SDS011;5477;48.806;9.154;2023-12-29T01:21:41;2.50;;;2.27;;
10847;SDS011;5477;48.806;9.154;2023-12-29T01:24:10;2.60;;;2.17;;
10847;SDS011;5477;48.806;9.154;2023-12-29T01:26:41;2.40;;;2.20;;
10847;SDS011;5477;48.806;9.154;2023-12-29T01:29:09;3.50;;;2.03;;
10847;SDS011;5477;48.806;9.154;2023-12-29T01:31:38;2.87;;;2.20;;
10847;SDS011;5477;48.806;9.154;2023-12-29T01:34:06;2.40;;;2.20;;
10847;SDS011;5477;48.806;9.154;2023-12-29T01:36:35;2.63;;;2.33;;
10847;SDS011;5477;48.806;9.154;2023-12-29T01:39:03;2.37;;;1.93;;
10847;SDS011;5477;48.806;9.154;2023-12-29T01:41:33;3.00;;;2.20;;
10847;SDS011;5477;48.806;9.154;2023-12-29T01:44:17;4.97;;;2.30;;
10847;SDS011;5477;48.806;9.154;2023-12-29T01:46:52;3.00;;;2.23;;
10847;SDS011;5477;48.806;9.154;2023-12-29T01:49:22;3.03;;;2.10;;
10847;SDS011;5477;48.806;9.154;2023-12-29T01:51:52;2.80;;;2.40;;
10847;SDS011;5477;48.806;9.154;2023-12-29T01:54:22;2.80;;;2.33;;
10847;SDS011;5477;48.806;9.154;2023-12-29T01:56:54;3.03;;;2.13;;
10847;SDS011;5477;48.806;9.154;2023-12-29T01:59:25;2.93;;;2.40;;
10847;SDS011;5477;48.806;9.154;2023-12-29T02:01:55;2.47;;;2.27;;
10847;SDS011;5477;48.806;9.154;2023-12-29T02:04:24;2.47;;;2.27;;
10847;SDS011;5477;48.806;9.154;2023-12-29T02:06:52;3.33;;;2.43;;
10847;SDS011;5477;48.806;9.154;2023-12-29T02:09:21;4.20;;;2.37;;
10847;SDS011;5477;48.806;9.154;2023-12-29T02:11:49;3.63;;;2.30;;
10847;SDS011;5477;48.806;9.154;2023-12-29T02:14:18;3.47;;;2.43;;
10847;SDS011;5477;48.806;9.154;2023-12-29T02:16:50;3.60;;;2.70;;
10847;SDS011;5477;48.806;9.154;2023-12-29T02:19:25;3.10;;;2.57;;
10847;SDS011;5477;48.806;9.154;2023-12-29T02:22:05;4.43;;;2.60;;
10847;SDS011;5477;48.806;9.154;2023-12-29T02:24:34;2.27;;;2.07;;
10847;SDS011;5477;48.806;9.154;2023-12-29T02:27:07;5.13;;;2.53;;
10847;SDS011;5477;48.806;9.154;2023-12-29T02:29:48;4.97;;;2.70;;
10847;SDS011;5477;48.806;9.154;2023-12-29T02:32:28;3.97;;;2.77;;
10847;SDS011;5477;48.806;9.154;2023-12-29T02:34:57;3.87;;;2.23;;
10847;SDS011;5477;48.806;9.154;2023-12-29T02:37:27;2.40;;;2.20;;
10847;SDS011;5477;48.806;9.154;2023-12-29T02:39:57;3.33;;;2.20;;
10847;SDS011;5477;48.806;9.154;2023-12-29T02:42:28;3.57;;;2.60;;
10847;SDS011;5477;48.806;9.154;2023-12-29T02:44:56;3.10;;;2.40;;
10847;SDS011;5477;48.806;9.154;2023-12-29T02:47:24;3.23;;;2.37;;
10847;SDS011;5477;48.806;9.154;2023-12-29T02:49:53;3.13;;;2.50;;
10847;SDS011;5477;48.806;9.154;2023-12-29T02:52:21;2.87;;;2.43;;
10847;SDS011;5477;48.806;9.154;2023-12-29T02:54:49;3.53;;;2.60;;
10847;SDS011;5477;48.806;9.154;2023-12-29T02:57:17;3.27;;;2.57;;
10847;SDS011;5477;48.806;9.154;2023-12-29T02:59:46;4.13;;;2.60;;
10847;SDS011;5477;48.806;9.154;2023-12-29T03:02:15;3.20;;;2.43;;
10847;SDS011;5477;48.806;9.154;2023-12-29T03:04:43;3.03;;;2.40;;
10847;SDS011;5477;48.806;9.154;2023-12-29T03:07:11;3.03;;;2.47;;
10847;SDS011;5477;48.806;9.154;2023-12-29T03:09:39;4.97;;;2.67;;
10847;SDS011;5477;48.806;9.154;2023-12-29T03:12:07;3.13;;;2.40;;
10847;SDS011;5477;48.806;9.154;2023-12-29T03:14:36;4.00;;;2.77;;
10847;SDS011;5477;48.806;9.154;2023-12-29T03:17:05;2.50;;;2.30;;
10847;SDS011;5477;48.806;9.154;2023-12-29T03:19:33;3.90;;;2.47;;
10847;SDS011;5477;48.806;9.154;2023-12-29T03:22:02;2.70;;;2.50;;
10847;SDS011;5477;48.806;9.154;2023-12-29T03:24:30;2.97;;;2.67;;
10847;SDS011;5477;48.806;9.154;2023-12-29T03:26:58;3.23;;;2.23;;
10847;SDS011;5477;48.806;9.154;2023-12-29T03:29:27;5.87;;;2.80;;
10847;SDS011;5477;48.806;9.154;2023-12-29T03:31:55;4.13;;;2.53;;
10847;SDS011;5477;48.806;9.154;2023-12-29T03:34:25;3.17;;;2.43;;
10847;SDS011;5477;48.806;9.154;2023-12-29T03:36:53;2.93;;;2.50;;
10847;SDS011;5477;48.806;9.154;2023-12-29T03:39:21;2.83;;;2.50;;
10847;SDS011;5477;48.806;9.154;2023-12-29T03:41:50;2.90;;;2.60;;
10847;SDS011;5477;48.806;9.154;2023-12-29T03:44:17;2.93;;;2.63;;
10847;SDS011;5477;48.806;9.154;2023-12-29T03:46:47;3.57;;;2.60;;
10847;SDS011;5477;48.806;9.154;2023-12-29T03:49:16;4.57;;;2.70;;
10847;SDS011;5477;48.806;9.154;2023-12-29T03:51:47;3.60;;;2.73;;
10847;SDS011;5477;48.806;9.154;2023-12-29T03:54:15;2.73;;;2.30;;
10847;SDS011;5477;48.806;9.154;2023-12-29T03:56:45;2.60;;;2.30;;
10847;SDS011;5477;48.806;9.154;2023-12-29T03:59:13;2.37;;;2.17;;
10847;SDS011;5477;48.806;9.154;2023-12-29T04:01:41;2.37;;;2.17;;
10847;SDS011;5477;48.806;9.154;2023-12-29T04:04:10;2.20;;;2.00;;
10847;SDS011;5477;48.806;9.154;2023-12-29T04:06:38;3.17;;;2.53;;
10847;SDS011;5477;48.806;9.154;2023-12-29T04:09:07;3.13;;;2.27;;
10847;SDS011;5477;48.806;9.154;2023-12-29T04:11:35;2.77;;;2.30;;
10847;SDS011;5477;48.806;9.154;2023-12-29T04:14:03;2.67;;;2.47;;
10847;SDS011;5477;48.806;9.154;2023-12-29T04:16:32;2.30;;;2.10;;
10847;SDS011;5477;48.806;9.154;2023-12-29T04:19:00;4.30;;;2.20;;
10847;SDS011;5477;48.806;9.154;2023-12-29T04:21:28;2.50;;;2.20;;
10847;SDS011;5477;48.806;9.154;2023-12-29T04:23:56;3.17;;;2.17;;
10847;SDS011;5477;48.806;9.154;2023-12-29T04:26:25;2.70;;;2.30;;
10847;SDS011;5477;48.806;9.154;2023-12-29T04:28:53;2.80;;;2.17;;
10847;SDS011;5477;48.806;9.154;2023-12-29T04:31:21;3.00;;;2.50;;
10847;SDS011;5477;48.806;9.154;2023-12-29T04:33:49;4.03;;;2.20;;
10847;SDS011;5477;48.806;9.154;2023-12-29T04:36:18;2.60;;;2.07;;
10847;SDS011;5477;48.806;9.154;2023-12-29T04:38:46;2.73;;;2.40;;
10847;SDS011;5477;48.806;9.154;2023-12-29T04:41:14;2.50;;;2.10;;
10847;SDS011;5477;48.806;9.154;2023-12-29T04:43:43;2.70;;;2.50;;
10847;SDS011;5477;48.806;9.154;2023-12-29T04:46:11;2.90;;;2.47;;
10847;SDS011;5477;48.806;9.154;2023-12-29T04:48:39;2.47;;;2.10;;
10847;SDS011;5477;48.806;9.154;2023-12-29T04:51:07;2.47;;;2.27;;
10847;SDS011;5477;48.806;9.154;2023-12-29T04:53:35;2.30;;;2.10;;
10847;SDS011;5477;48.806;9.154;2023-12-29T04:56:04;3.47;;;2.30;;
10847;SDS011;5477;48.806;9.154;2023-12-29T04:58:32;2.47;;;2.27;;
10847;SDS011;5477;48.806;9.154;2023-12-29T05:01:02;2.30;;;2.10;;
10847;SDS011;5477;48.806;9.154;2023-12-29T05:03:30;2.33;;;2.00;;
10847;SDS011;5477;48.806;9.154;2023-12-29T05:05:58;3.97;;;2.30;;
10847;SDS011;5477;48.806;9.154;2023-12-29T05:08:26;3.07;;;2.40;;
10847;SDS011;5477;48.806;9.154;2023-12-29T05:10:54;2.50;;;2.30;;
10847;SDS011;5477;48.806;9.154;2023-12-29T05:13:23;3.77;;;2.57;;
10847;SDS011;5477;48.806;9.154;2023-12-29T05:15:51;2.53;;;2.20;;
10847;SDS011;5477;48.806;9.154;2023-12-29T05:18:20;3.90;;;2.30;;
10847;SDS011;5477;48.806;9.154;2023-12-29T05:20:48;2.60;;;2.40;;
10847;SDS011;5477;48.806;9.154;2023-12-29T05:23:16;2.53;;;2.33;;
10847;SDS011;5477;48.806;9.154;2023-12-29T05:25:44;3.10;;;2.50;;
10847;SDS011;5477;48.806;9.154;2023-12-29T05:28:12;3.63;;;2.43;;
10847;SDS011;5477;48.806;9.154;2023-12-29T05:30:40;3.00;;;2.60;;
10847;SDS011;5477;48.806;9.154;2023-12-29T05:33:08;3.17;;;2.23;;
10847;SDS011;5477;48.806;9.154;2023-12-29T05:35:38;4.43;;;2.70;;
10847;SDS011;5477;48.806;9.154;2023-12-29T05:38:06;3.37;;;2.23;;
10847;SDS011;5477;48.806;9.154;2023-12-29T05:40:34;2.60;;;2.40;;
10847;SDS011;5477;48.806;9.154;2023-12-29T05:43:02;3.47;;;2.37;;
10847;SDS011;5477;48.806;9.154;2023-12-29T05:45:30;2.60;;;2.40;;
10847;SDS011;5477;48.806;9.154;2023-12-29T05:47:58;4.93;;;2.67;;
10847;SDS011;5477;48.806;9.154;2023-12-29T05:50:27;3.80;;;2.70;;
10847;SDS011;5477;48.806;9.154;2023-12-29T05:52:56;3.80;;;2.80;;
10847;SDS011;5477;48.806;9.154;2023-12-29T05:55:25;3.27;;;2.63;;
10847;SDS011;5477;48.806;9.154;2023-12-29T05:57:53;3.10;;;2.77;;
10847;SDS011;5477;48.806;9.154;2023-12-29T06:00:22;4.20;;;2.80;;
10847;SDS011;5477;48.806;9.154;2023-12-29T06:02:50;3.07;;;2.77;;
10847;SDS011;5477;48.806;9.154;2023-12-29T06:05:18;3.50;;;2.57;;
10847;SDS011;5477;48.806;9.154;2023-12-29T06:07:46;3.47;;;2.70;;
10847;SDS011;5477;48.806;9.154;2023-12-29T06:10:16;4.73;;;2.90;;
10847;SDS011;5477;48.806;9.154;2023-12-29T06:12:44;6.70;;;3.63;;
10847;SDS011;5477;48.806;9.154;2023-12-29T06:15:12;3.27;;;2.60;;
10847;SDS011;5477;48.806;9.154;2023-12-29T06:17:42;3.17;;;2.87;;
10847;SDS011;5477;48.806;9.154;2023-12-29T06:20:11;3.43;;;3.13;;
10847;SDS011;5477;48.806;9.154;2023-12-29T06:22:39;3.03;;;2.73;;
10847;SDS011;5477;48.806;9.154;2023-12-29T06:25:08;4.27;;;3.03;;
10847;SDS011;5477;48.806;9.154;2023-12-29T06:27:38;3.60;;;2.67;;
10847;SDS011;5477;48.806;9.154;2023-12-29T06:30:07;3.70;;;2.77;;
10847;SDS011;5477;48.806;9.154;2023-12-29T06:32:37;5.13;;;2.83;;
10847;SDS011;5477;48.806;9.154;2023-12-29T06:35:07;3.93;;;2.70;;
10847;SDS011;5477;48.806;9.154;2023-12-29T06:37:36;3.17;;;2.50;;
10847;SDS011;5477;48.806;9.154;2023-12-29T06:40:06;3.97;;;2.70;;
10847;SDS011;5477;48.806;9.154;2023-12-29T06:42:35;2.90;;;2.57;;
10847;SDS011;5477;48.806;9.154;2023-12-29T06:45:05;2.77;;;2.43;;
10847;SDS011;5477;48.806;9.154;2023-12-29T06:47:35;2.40;;;2.20;;
10847;SDS011;5477;48.806;9.154;2023-12-29T06:50:04;2.87;;;2.40;;
10847;SDS011;5477;48.806;9.154;2023-12-29T06:52:33;2.37;;;2.17;;
10847;SDS011;5477;48.806;9.154;2023-12-29T06:55:01;3.00;;;2.60;;
10847;SDS011;5477;48.806;9.154;2023-12-29T06:57:30;2.80;;;2.30;;
10847;SDS011;5477;48.806;9.154;2023-12-29T06:59:58;2.80;;;2.37;;
10847;SDS011;5477;48.806;9.154;2023-12-29T07:02:28;4.63;;;2.40;;
10847;SDS011;5477;48.806;9.154;2023-12-29T07:04:56;3.60;;;2.20;;
10847;SDS011;5477;48.806;9.154;2023-12-29T07:07:24;2.93;;;2.13;;
10847;SDS011;5477;48.806;9.154;2023-12-29T07:09:52;2.90;;;2.30;;
10847;SDS011;5477;48.806;9.154;2023-12-29T07:12:20;2.47;;;2.23;;
10847;SDS011;5477;48.806;9.154;2023-12-29T07:14:48;2.77;;;2.10;;
10847;SDS011;5477;48.806;9.154;2023-12-29T07:17:19;3.30;;;2.30;;
10847;SDS011;5477;48.806;9.154;2023-12-29T07:19:49;2.33;;;2.10;;
10847;SDS011;5477;48.806;9.154;2023-12-29T07:22:17;3.33;;;2.17;;
10847;SDS011;5477;48.806;9.154;2023-12-29T07:24:45;3.07;;;2.10;;
10847;SDS011;5477;48.806;9.154;2023-12-29T07:27:13;2.50;;;2.10;;
10847;SDS011;5477;48.806;9.154;2023-12-29T07:29:42;3.27;;;1.93;;
10847;SDS011;5477;48.806;9.154;2023-12-29T07:32:10;3.87;;;2.10;;
10847;SDS011;5477;48.806;9.154;2023-12-29T07:34:38;3.00;;;2.10;;
10847;SDS011;5477;48.806;9.154;2023-12-29T07:37:08;3.17;;;2.33;;
10847;SDS011;5477;48.806;9.154;2023-12-29T07:39:36;2.43;;;2.23;;
10847;SDS011;5477;48.806;9.154;2023-12-29T07:42:04;3.43;;;2.10;;
10847;SDS011;5477;48.806;9.154;2023-12-29T07:44:32;2.47;;;2.17;;
10847;SDS011;5477;48.806;9.154;2023-12-29T07:47:01;2.30;;;2.10;;
10847;SDS011;5477;48.806;9.154;2023-12-29T07:49:29;2.77;;;1.93;;
10847;SDS011;5477;48.806;9.154;2023-12-29T07:51:57;2.67;;;2.10;;
10847;SDS011;5477;48.806;9.154;2023-12-29T07:54:27;2.20;;;2.00;;
10847;SDS011;5477;48.806;9.154;2023-12-29T07:56:55;2.43;;;2.00;;
10847;SDS011;5477;48.806;9.154;2023-12-29T07:59:24;2.20;;;2.00;;
10847;SDS011;5477;48.806;9.154;2023-12-29T08:01:53;2.00;;;1.70;;
10847;SDS011;5477;48.806;9.154;2023-12-29T08:04:21;2.70;;;1.70;;
10847;SDS011;5477;48.806;9.154;2023-12-29T08:06:50;2.10;;;1.73;;
10847;SDS011;5477;48.806;9.154;2023-12-29T08:09:18;2.40;;;1.87;;
10847;SDS011;5477;48.806;9.154;2023-12-29T08:11:48;2.80;;;2.07;;
10847;SDS011;5477;48.806;9.154;2023-12-29T08:14:16;2.43;;;1.97;;
10847;SDS011;5477;48.806;9.154;2023-12-29T08:16:45;3.20;;;1.90;;
10847;SDS011;5477;48.806;9.154;2023-12-29T08:19:13;3.07;;;1.80;;
10847;SDS011;5477;48.806;9.154;2023-12-29T08:21:42;2.80;;;2.10;;
10847;SDS011;5477;48.806;9.154;2023-12-29T08:24:10;2.57;;;1.97;;
10847;SDS011;5477;48.806;9.154;2023-12-29T08:26:43;2.20;;;1.90;;
10847;SDS011;5477;48.806;9.154;2023-12-29T08:29:13;2.90;;;2.03;;
10847;SDS011;5477;48.806;9.154;2023-12-29T08:31:41;2.03;;;1.83;;
10847;SDS011;5477;48.806;9.154;2023-12-29T08:34:10;2.23;;;2.03;;
10847;SDS011;5477;48.806;9.154;2023-12-29T08:36:38;2.57;;;1.83;;
10847;SDS011;5477;48.806;9.154;2023-12-29T08:39:07;2.40;;;2.03;;
10847;SDS011;5477;48.806;9.154;2023-12-29T08:41:35;2.07;;;1.87;;
10847;SDS011;5477;48.806;9.154;2023-12-29T08:44:03;2.73;;;1.80;;
10847;SDS011;5477;48.806;9.154;2023-12-29T08:46:33;2.27;;;1.83;;
10847;SDS011;5477;48.806;9.154;2023-12-29T08:49:01;2.63;;;2.03;;
10847;SDS011;5477;48.806;9.154;2023-12-29T08:51:30;2.67;;;1.73;;
10847;SDS011;5477;48.806;9.154;2023-12-29T08:53:58;2.27;;;2.00;;
10847;SDS011;5477;48.806;9.154;2023-12-29T08:56:26;3.13;;;2.07;;
10847;SDS011;5477;48.806;9.154;2023-12-29T08:58:55;2.30;;;2.07;;
10847;SDS011;5477;48.806;9.154;2023-12-29T09:01:23;2.53;;;2.17;;
10847;SDS011;5477;48.806;9.154;2023-12-29T09:03:53;2.10;;;1.90;;
10847;SDS011;5477;48.806;9.154;2023-12-29T09:06:21;2.23;;;1.90;;
10847;SDS011;5477;48.806;9.154;2023-12-29T09:08:49;3.50;;;2.20;;
10847;SDS011;5477;48.806;9.154;2023-12-29T09:11:17;1.97;;;1.70;;
10847;SDS011;5477;48.806;9.154;2023-12-29T09:13:46;2.90;;;1.93;;
10847;SDS011;5477;48.806;9.154;2023-12-29T09:16:14;2.30;;;1.80;;
10847;SDS011;5477;48.806;9.154;2023-12-29T09:18:42;2.33;;;1.73;;
10847;SDS011;5477;48.806;9.154;2023-12-29T09:21:12;1.90;;;1.70;;
10847;SDS011;5477;48.806;9.154;2023-12-29T09:23:40;3.20;;;1.90;;
10847;SDS011;5477;48.806;9.154;2023-12-29T09:26:08;2.03;;;1.80;;
10847;SDS011;5477;48.806;9.154;2023-12-29T09:28:36;1.70;;;1.60;;
10847;SDS011;5477;48.806;9.154;2023-12-29T09:31:04;2.63;;;1.53;;
10847;SDS011;5477;48.806;9.154;2023-12-29T09:33:32;1.87;;;1.47;;
10847;SDS011;5477;48.806;9.154;2023-12-29T09:36:00;3.40;;;1.80;;
10847;SDS011;5477;48.806;9.154;2023-12-29T09:38:30;1.90;;;1.70;;
10847;SDS011;5477;48.806;9.154;2023-12-29T09:40:59;3.27;;;1.70;;
10847;SDS011;5477;48.806;9.154;2023-12-29T09:43:32;2.53;;;1.63;;
10847;SDS011;5477;48.806;9.154;2023-12-29T09:46:00;1.70;;;1.60;;
10847;SDS011;5477;48.806;9.154;2023-12-29T09:48:30;1.93;;;1.47;;
10847;SDS011;5477;48.806;9.154;2023-12-29T09:51:01;1.80;;;1.30;;
10847;SDS011;5477;48.806;9.154;2023-12-29T09:53:31;1.50;;;1.40;;
10847;SDS011;5477;48.806;9.154;2023-12-29T09:55:59;1.70;;;1.40;;
10847;SDS011;5477;48.806;9.154;2023-12-29T09:58:28;2.63;;;1.70;;
10847;SDS011;5477;48.806;9.154;2023-12-29T10:00:56;1.77;;;1.30;;
10847;SDS011;5477;48.806;9.154;2023-12-29T10:03:24;1.90;;;1.40;;
10847;SDS011;5477;48.806;9.154;2023-12-29T10:05:54;2.77;;;1.80;;
10847;SDS011;5477;48.806;9.154;2023-12-29T10:08:24;3.27;;;2.07;;
10847;SDS011;5477;48.806;9.154;2023-12-29T10:10:54;3.07;;;1.50;;
10847;SDS011;5477;48.806;9.154;2023-12-29T10:13:25;2.43;;;1.50;;
10847;SDS011;5477;48.806;9.154;2023-12-29T10:15:56;2.37;;;1.40;;
10847;SDS011;5477;48.806;9.154;2023-12-29T10:18:30;1.40;;;1.30;;
10847;SDS011;5477;48.806;9.154;2023-12-29T10:21:07;1.90;;;1.57;;
10847;SDS011;5477;48.806;9.154;2023-12-29T10:23:47;2.83;;;1.50;;
10847;SDS011;5477;48.806;9.154;2023-12-29T10:26:23;1.97;;;1.30;;
10847;SDS011;5477;48.806;9.154;2023-12-29T10:28:53;1.60;;;1.30;;
10847;SDS011;5477;48.806;9.154;2023-12-29T10:31:22;2.30;;;1.50;;
10847;SDS011;5477;48.806;9.154;2023-12-29T10:33:51;1.90;;;1.67;;
10847;SDS011;5477;48.806;9.154;2023-12-29T10:36:19;1.50;;;1.40;;
10847;SDS011;5477;48.806;9.154;2023-12-29T10:38:47;1.73;;;1.43;;
10847;SDS011;5477;48.806;9.154;2023-12-29T10:41:16;3.37;;;1.33;;
10847;SDS011;5477;48.806;9.154;2023-12-29T10:43:47;1.90;;;1.30;;
10847;SDS011;5477;48.806;9.154;2023-12-29T10:46:18;1.47;;;1.30;;
10847;SDS011;5477;48.806;9.154;2023-12-29T10:48:47;1.40;;;1.20;;
10847;SDS011;5477;48.806;9.154;2023-12-29T10:51:16;2.13;;;1.10;;
10847;SDS011;5477;48.806;9.154;2023-12-29T10:53:55;1.60;;;1.20;;
10847;SDS011;5477;48.806;9.154;2023-12-29T10:56:23;1.60;;;1.30;;
10847;SDS011;5477;48.806;9.154;2023-12-29T10:59:00;2.33;;;1.20;;
10847;SDS011;5477;48.806;9.154;2023-12-29T11:01:30;1.00;;;0.93;;
10847;SDS011;5477;48.806;9.154;2023-12-29T11:03:59;1.23;;;1.07;;
10847;SDS011;5477;48.806;9.154;2023-12-29T11:06:30;1.23;;;1.10;;
10847;SDS011;5477;48.806;9.154;2023-12-29T11:09:07;1.20;;;1.00;;
10847;SDS011;5477;48.806;9.154;2023-12-29T11:11:37;1.43;;;1.10;;
10847;SDS011;5477;48.806;9.154;2023-12-29T11:14:07;1.20;;;0.90;;
10847;SDS011;5477;48.806;9.154;2023-12-29T11:16:39;1.20;;;1.10;;
10847;SDS011;5477;48.806;9.154;2023-12-29T11:19:08;1.90;;;0.97;;
10847;SDS011;5477;48.806;9.154;2023-12-29T11:21:39;1.20;;;1.10;;
10847;SDS011;5477;48.806;9.154;2023-12-29T11:24:12;1.10;;;1.00;;
10847;SDS011;5477;48.806;9.154;2023-12-29T11:26:48;2.60;;;1.30;;
10847;SDS011;5477;48.806;9.154;2023-12-29T11:29:18;1.30;;;1.10;;
10847;SDS011;5477;48.806;9.154;2023-12-29T11:31:47;1.20;;;1.10;;
10847;SDS011;5477;48.806;9.154;2023-12-29T11:34:18;1.20;;;1.10;;
10847;SDS011;5477;48.806;9.154;2023-12-29T11:36:55;2.20;;;1.10;;
10847;SDS011;5477;48.806;9.154;2023-12-29T11:39:36;0.80;;;0.80;;
10847;SDS011;5477;48.806;9.154;2023-12-29T11:42:13;1.20;;;1.00;;
10847;SDS011;5477;48.806;9.154;2023-12-29T11:44:48;0.90;;;0.90;;
10847;SDS011;5477;48.806;9.154;2023-12-29T11:47:35;1.43;;;1.03;;
10847;SDS011;5477;48.806;9.154;2023-12-29T11:50:04;0.90;;;0.90;;
10847;SDS011;5477;48.806;9.154;2023-12-29T11:52:33;0.97;;;0.90;;
10847;SDS011;5477;48.806;9.154;2023-12-29T11:55:08;1.20;;;1.10;;
10847;SDS011;5477;48.806;9.154;2023-12-29T11:57:37;1.33;;;1.00;;
10847;SDS011;5477;48.806;9.154;2023-12-29T12:00:08;1.10;;;1.00;;
10847;SDS011;5477;48.806;9.154;2023-12-29T12:02:37;1.10;;;0.90;;
10847;SDS011;5477;48.806;9.154;2023-12-29T12:05:08;0.90;;;0.90;;
10847;SDS011;5477;48.806;9.154;2023-12-29T12:10:30;1.00;;;0.90;;
10847;SDS011;5477;48.806;9.154;2023-12-29T12:13:00;1.30;;;1.00;;
10847;SDS011;5477;48.806;9.154;2023-12-29T12:15:33;1.90;;;0.90;;
10847;SDS011;5477;48.806;9.154;2023-12-29T12:18:02;1.10;;;1.00;;
10847;SDS011;5477;48.806;9.154;2023-12-29T12:20:34;1.10;;;1.00;;
10847;SDS011;5477;48.806;9.154;2023-12-29T12:23:03;1.10;;;1.00;;
10847;SDS011;5477;48.806;9.154;2023-12-29T12:25:35;1.10;;;1.00;;
10847;SDS011;5477;48.806;9.154;2023-12-29T12:28:06;1.10;;;1.00;;
10847;SDS011;5477;48.806;9.154;2023-12-29T12:30:38;1.20;;;1.10;;
10847;SDS011;5477;48.806;9.154;2023-12-29T12:33:06;1.63;;;0.90;;
10847;SDS011;5477;48.806;9.154;2023-12-29T12:35:38;2.07;;;1.20;;
10847;SDS011;5477;48.806;9.154;2023-12-29T12:38:06;1.00;;;0.83;;
10847;SDS011;5477;48.806;9.154;2023-12-29T12:40:35;2.00;;;1.27;;
10847;SDS011;5477;48.806;9.154;2023-12-29T12:43:04;1.20;;;1.10;;
10847;SDS011;5477;48.806;9.154;2023-12-29T12:45:34;1.20;;;1.10;;
10847;SDS011;5477;48.806;9.154;2023-12-29T12:48:12;1.83;;;1.10;;
10847;SDS011;5477;48.806;9.154;2023-12-29T12:50:42;1.30;;;1.20;;
10847;SDS011;5477;48.806;9.154;2023-12-29T12:53:12;1.20;;;1.00;;
10847;SDS011;5477;48.806;9.154;2023-12-29T12:55:47;1.30;;;1.20;;
10847;SDS011;5477;48.806;9.154;2023-12-29T12:58:15;1.47;;;1.20;;
10847;SDS011;5477;48.806;9.154;2023-12-29T13:00:45;1.30;;;1.10;;
10847;SDS011;5477;48.806;9.154;2023-12-29T13:03:19;1.40;;;1.30;;
10847;SDS011;5477;48.806;9.154;2023-12-29T13:05:48;1.10;;;1.00;;
10847;SDS011;5477;48.806;9.154;2023-12-29T13:08:17;1.30;;;1.07;;
10847;SDS011;5477;48.806;9.154;2023-12-29T13:10:59;1.20;;;1.10;;
10847;SDS011;5477;48.806;9.154;2023-12-29T13:13:35;1.77;;;1.10;;
10847;SDS011;5477;48.806;9.154;2023-12-29T13:16:06;1.57;;;1.30;;
10847;SDS011;5477;48.806;9.154;2023-12-29T13:18:36;1.30;;;1.10;;
10847;SDS011;5477;48.806;9.154;2023-12-29T13:21:05;1.20;;;1.10;;
10847;SDS011;5477;48.806;9.154;2023-12-29T13:23:34;1.70;;;1.50;;
10847;SDS011;5477;48.806;9.154;2023-12-29T13:26:04;2.03;;;1.23;;
10847;SDS011;5477;48.806;9.154;2023-12-29T13:28:34;1.47;;;1.23;;
10847;SDS011;5477;48.806;9.154;2023-12-29T13:31:05;1.20;;;1.10;;
10847;SDS011;5477;48.806;9.154;2023-12-29T13:33:41;1.43;;;1.07;;
10847;SDS011;5477;48.806;9.154;2023-12-29T13:36:17;1.20;;;1.10;;
10847;SDS011;5477;48.806;9.154;2023-12-29T13:38:53;1.10;;;1.00;;
10847;SDS011;5477;48.806;9.154;2023-12-29T13:41:24;1.10;;;1.00;;
10847;SDS011;5477;48.806;9.154;2023-12-29T13:43:55;1.70;;;1.10;;
10847;SDS011;5477;48.806;9.154;2023-12-29T13:46:25;1.63;;;1.20;;
10847;SDS011;5477;48.806;9.154;2023-12-29T13:48:56;1.20;;;1.07;;
10847;SDS011;5477;48.806;9.154;2023-12-29T13:51:25;1.83;;;1.30;;
10847;SDS011;5477;48.806;9.154;2023-12-29T13:53:59;3.17;;;1.33;;
10847;SDS011;5477;48.806;9.154;2023-12-29T13:56:27;1.17;;;1.00;;
10847;SDS011;5477;48.806;9.154;2023-12-29T13:58:56;1.23;;;1.10;;
10847;SDS011;5477;48.806;9.154;2023-12-29T14:01:34;1.40;;;1.10;;
10847;SDS011;5477;48.806;9.154;2023-12-29T14:04:07;1.47;;;1.10;;
10847;SDS011;5477;48.806;9.154;2023-12-29T14:06:39;1.47;;;0.97;;
10847;SDS011;5477;48.806;9.154;2023-12-29T14:09:13;1.50;;;1.10;;
10847;SDS011;5477;48.806;9.154;2023-12-29T14:11:44;1.10;;;1.00;;
10847;SDS011;5477;48.806;9.154;2023-12-29T14:14:13;1.33;;;1.20;;
10847;SDS011;5477;48.806;9.154;2023-12-29T14:16:41;1.30;;;1.13;;
10847;SDS011;5477;48.806;9.154;2023-12-29T14:19:11;1.30;;;1.10;;
10847;SDS011;5477;48.806;9.154;2023-12-29T14:21:39;1.67;;;1.23;;
10847;SDS011;5477;48.806;9.154;2023-12-29T14:24:08;1.20;;;1.10;;
10847;SDS011;5477;48.806;9.154;2023-12-29T14:26:37;1.07;;;0.90;;
10847;SDS011;5477;48.806;9.154;2023-12-29T14:29:07;1.33;;;1.13;;
10847;SDS011;5477;48.806;9.154;2023-12-29T14:31:36;1.93;;;1.10;;
10847;SDS011;5477;48.806;9.154;2023-12-29T14:34:05;1.50;;;1.10;;
10847;SDS011;5477;48.806;9.154;2023-12-29T14:36:36;2.23;;;1.00;;
10847;SDS011;5477;48.806;9.154;2023-12-29T14:39:05;1.17;;;1.07;;
10847;SDS011;5477;48.806;9.154;2023-12-29T14:41:33;1.93;;;1.30;;
10847;SDS011;5477;48.806;9.154;2023-12-29T14:44:01;1.07;;;0.97;;
10847;SDS011;5477;48.806;9.154;2023-12-29T14:46:30;2.90;;;1.20;;
10847;SDS011;5477;48.806;9.154;2023-12-29T14:48:59;1.10;;;0.97;;
10847;SDS011;5477;48.806;9.154;2023-12-29T14:51:28;1.83;;;1.10;;
10847;SDS011;5477;48.806;9.154;2023-12-29T14:53:57;1.20;;;1.10;;
10847;SDS011;5477;48.806;9.154;2023-12-29T14:56:25;1.40;;;1.17;;
10847;SDS011;5477;48.806;9.154;2023-12-29T14:58:53;1.40;;;1.20;;
10847;SDS011;5477;48.806;9.154;2023-12-29T15:01:21;2.13;;;0.90;;
10847;SDS011;5477;48.806;9.154;2023-12-29T15:03:49;1.43;;;1.17;;
10847;SDS011;5477;48.806;9.154;2023-12-29T15:06:18;1.23;;;1.03;;
10847;SDS011;5477;48.806;9.154;2023-12-29T15:08:46;1.13;;;1.03;;
10847;SDS011;5477;48.806;9.154;2023-12-29T15:11:15;1.53;;;1.17;;
10847;SDS011;5477;48.806;9.154;2023-12-29T15:13:45;1.23;;;1.10;;
10847;SDS011;5477;48.806;9.154;2023-12-29T15:16:13;1.20;;;1.10;;